createdAt,value
2018-08-09T00:01:11.735Z,56.77
2018-08-09T00:03:45.202Z,56.54
2018-08-09T00:06:18.589Z,56.59
2018-08-09T00:08:52.009Z,56.61
2018-08-09T00:11:25.411Z,56.78
2018-08-09T00:13:58.816Z,56.99
2018-08-09T00:16:32.198Z,56.98
2018-08-09T00:19:05.632Z,57.66
2018-08-09T00:21:39.027Z,57.44
2018-08-09T00:24:12.439Z,57.08
2018-08-09T00:26:45.837Z,56.92
2018-08-09T00:29:19.252Z,57.49
2018-08-09T00:31:52.623Z,57.74
2018-08-09T00:34:26.020Z,57.06
2018-08-09T00:36:59.403Z,57.40
2018-08-09T00:39:32.848Z,57.66
2018-08-09T00:42:06.510Z,58.51
2018-08-09T00:44:39.928Z,57.85
2018-08-09T00:47:13.340Z,58.16
2018-08-09T00:49:46.959Z,57.96
2018-08-09T00:52:20.392Z,58.79
2018-08-09T00:54:53.799Z,58.21
2018-08-09T00:57:27.242Z,58.38
2018-08-09T01:00:00.678Z,58.59
2018-08-09T01:02:34.135Z,58.83
2018-08-09T01:05:07.571Z,58.43
2018-08-09T01:07:40.946Z,58.69
2018-08-09T01:10:14.367Z,58.89
2018-08-09T01:12:47.785Z,59.83
2018-08-09T01:15:21.186Z,60.15
2018-08-09T01:17:54.667Z,59.79
2018-08-09T01:20:28.055Z,59.29
2018-08-09T01:23:01.450Z,59.02
2018-08-09T01:25:34.875Z,59.49
2018-08-09T01:28:08.265Z,59.51
2018-08-09T01:30:41.693Z,59.83
2018-08-09T01:33:15.088Z,59.69
2018-08-09T01:35:48.473Z,59.83
2018-08-09T01:38:21.878Z,59.41
2018-08-09T01:40:55.284Z,59.39
2018-08-09T01:43:39.895Z,59.30
2018-08-09T01:46:13.285Z,59.55
2018-08-09T01:48:46.650Z,59.64
2018-08-09T01:51:20.111Z,60.39
2018-08-09T01:53:53.903Z,60.25
2018-08-09T01:56:27.303Z,59.95
2018-08-09T01:59:00.718Z,59.99
2018-08-09T02:01:34.171Z,60.45
2018-08-09T02:04:07.585Z,60.08
2018-08-09T02:06:40.982Z,60.43
2018-08-09T02:09:18.507Z,60.73
2018-08-09T02:11:51.921Z,60.18
2018-08-09T02:14:25.291Z,60.37
2018-08-09T02:16:58.878Z,60.53
2018-08-09T02:19:32.270Z,60.75
2018-08-09T02:22:05.716Z,60.79
2018-08-09T02:24:39.207Z,60.35
2018-08-09T02:27:12.631Z,61.32
2018-08-09T02:29:46.015Z,60.85
2018-08-09T02:32:19.423Z,61.09
2018-08-09T02:34:52.799Z,61.06
2018-08-09T02:37:26.251Z,61.15
2018-08-09T02:39:59.629Z,61.41
2018-08-09T02:42:33.040Z,61.72
2018-08-09T02:45:06.499Z,61.32
2018-08-09T02:47:39.927Z,60.88
2018-08-09T02:50:13.356Z,61.61
2018-08-09T02:52:46.757Z,60.97
2018-08-09T02:55:20.163Z,61.26
2018-08-09T02:57:53.547Z,60.71
2018-08-09T03:00:27.007Z,60.83
2018-08-09T03:03:00.396Z,61.58
2018-08-09T03:05:33.807Z,61.74
2018-08-09T03:08:07.240Z,61.67
2018-08-09T03:10:40.634Z,61.36
2018-08-09T03:13:14.094Z,61.30
2018-08-09T03:15:47.477Z,61.33
2018-08-09T03:18:20.850Z,61.49
2018-08-09T03:20:54.246Z,61.70
2018-08-09T03:23:27.653Z,61.85
2018-08-09T03:26:01.061Z,62.21
2018-08-09T03:28:34.828Z,62.01
2018-08-09T03:31:08.272Z,62.11
2018-08-09T03:33:41.642Z,61.75
2018-08-09T03:36:15.058Z,61.42
2018-08-09T03:38:48.456Z,61.37
2018-08-09T03:41:21.859Z,61.55
2018-08-09T03:43:55.296Z,61.52
2018-08-09T03:46:28.713Z,61.78
2018-08-09T03:49:02.130Z,62.62
2018-08-09T03:51:35.910Z,61.96
2018-08-09T03:54:09.311Z,61.79
2018-08-09T03:56:42.714Z,61.55
2018-08-09T03:59:16.098Z,61.54
2018-08-09T04:01:54.705Z,61.58
2018-08-09T04:04:28.199Z,61.35
2018-08-09T04:07:01.603Z,61.39
2018-08-09T04:09:34.997Z,61.36
2018-08-09T04:12:08.426Z,61.74
2018-08-09T04:14:41.806Z,61.38
2018-08-09T04:17:21.340Z,61.67
2018-08-09T04:19:54.714Z,61.79
2018-08-09T04:22:28.112Z,61.72
2018-08-09T04:25:01.473Z,62.27
2018-08-09T04:27:34.856Z,61.86
2018-08-09T04:30:08.299Z,62.17
2018-08-09T04:32:41.671Z,62.22
2018-08-09T04:35:15.097Z,62.12
2018-08-09T04:37:48.488Z,61.62
2018-08-09T04:40:21.871Z,61.78
2018-08-09T04:42:55.261Z,61.61
2018-08-09T04:45:28.655Z,62.04
2018-08-09T04:48:02.044Z,61.92
2018-08-09T04:50:35.704Z,61.61
2018-08-09T04:53:09.100Z,61.51
2018-08-09T04:55:42.470Z,61.39
2018-08-09T04:58:15.880Z,61.55
2018-08-09T05:00:49.291Z,62.51
2018-08-09T05:03:22.671Z,62.37
2018-08-09T05:05:56.047Z,61.54
2018-08-09T05:08:29.456Z,61.69
2018-08-09T05:11:02.863Z,61.25
2018-08-09T05:13:36.271Z,61.07
2018-08-09T05:16:09.706Z,61.07
2018-08-09T05:18:43.107Z,61.07
2018-08-09T05:21:16.512Z,61.54
2018-08-09T05:23:49.918Z,60.90
2018-08-09T05:26:23.326Z,60.37
2018-08-09T05:28:56.767Z,60.77
2018-08-09T05:31:30.175Z,59.91
2018-08-09T05:34:03.716Z,59.30
2018-08-09T05:36:37.089Z,59.12
2018-08-09T05:39:11.672Z,58.72
2018-08-09T05:41:45.059Z,58.63
2018-08-09T05:44:18.458Z,58.45
2018-08-09T05:46:51.846Z,59.11
2018-08-09T05:49:25.230Z,58.44
2018-08-09T05:51:58.656Z,57.87
2018-08-09T05:54:32.071Z,57.88
2018-08-09T05:57:05.654Z,57.48
2018-08-09T05:59:39.099Z,57.48
2018-08-09T06:02:12.491Z,57.31
2018-08-09T06:04:45.881Z,57.35
2018-08-09T06:07:19.323Z,56.68
2018-08-09T06:09:52.702Z,57.22
2018-08-09T06:12:26.109Z,55.73
2018-08-09T06:14:59.538Z,55.65
2018-08-09T06:17:32.963Z,55.84
2018-08-09T06:20:06.479Z,54.83
2018-08-09T06:22:39.887Z,55.08
2018-08-09T06:25:13.296Z,54.98
2018-08-09T06:27:46.737Z,56.16
2018-08-09T06:30:20.159Z,55.97
2018-08-09T06:32:53.568Z,55.02
2018-08-09T06:35:26.934Z,55.08
2018-08-09T06:38:00.379Z,53.98
2018-08-09T06:40:33.802Z,53.18
2018-08-09T06:43:07.239Z,53.57
2018-08-09T06:45:40.636Z,53.05
2018-08-09T06:48:14.081Z,52.68
2018-08-09T06:50:47.472Z,52.54
2018-08-09T06:53:20.885Z,51.39
2018-08-09T06:55:54.262Z,52.13
2018-08-09T06:58:27.698Z,52.04
2018-08-09T07:01:01.132Z,51.69
2018-08-09T07:03:34.540Z,51.88
2018-08-09T07:06:07.920Z,50.49
2018-08-09T07:08:41.296Z,51.32
2018-08-09T07:11:14.683Z,51.37
2018-08-09T07:13:48.084Z,52.14
2018-08-09T07:16:21.450Z,51.21
2018-08-09T07:18:54.846Z,50.08
2018-08-09T07:21:28.264Z,50.26
2018-08-09T07:24:01.771Z,49.68
2018-08-09T07:26:35.219Z,49.86
2018-08-09T07:29:08.725Z,48.95
2018-08-09T07:31:42.126Z,48.30
2018-08-09T07:34:15.515Z,48.54
2018-08-09T07:36:48.937Z,48.32
2018-08-09T07:39:22.376Z,47.88
2018-08-09T07:41:55.744Z,49.07
2018-08-09T07:44:29.198Z,47.96
2018-08-09T07:47:02.605Z,47.01
2018-08-09T07:49:36.009Z,47.83
2018-08-09T07:52:09.428Z,46.75
2018-08-09T07:54:42.861Z,46.52
2018-08-09T07:57:16.227Z,45.51
2018-08-09T07:59:49.660Z,45.10
2018-08-09T08:02:23.056Z,44.81
2018-08-09T08:04:56.498Z,45.47
2018-08-09T08:07:29.938Z,44.79
2018-08-09T08:10:03.411Z,44.31
2018-08-09T08:12:36.822Z,44.29
2018-08-09T08:15:11.391Z,44.64
2018-08-09T08:17:44.717Z,43.52
2018-08-09T08:20:18.168Z,43.33
2018-08-09T08:22:51.538Z,42.75
2018-08-09T08:25:24.994Z,43.17
2018-08-09T08:27:58.355Z,43.20
2018-08-09T08:30:31.802Z,43.13
2018-08-09T08:33:06.061Z,42.13
2018-08-09T08:35:39.487Z,41.79
2018-08-09T08:38:12.875Z,40.26
2018-08-09T08:40:46.304Z,39.44
2018-08-09T08:43:19.687Z,39.58
2018-08-09T08:45:53.124Z,38.73
2018-08-09T08:48:26.534Z,38.26
2018-08-09T08:50:59.935Z,37.92
2018-08-09T08:53:33.330Z,38.52
2018-08-09T08:56:06.787Z,38.79
2018-08-09T08:58:40.224Z,39.93
2018-08-09T09:01:13.682Z,37.79
2018-08-09T09:03:47.100Z,36.57
2018-08-09T09:06:20.527Z,36.38
2018-08-09T09:08:53.907Z,34.94
2018-08-09T09:11:27.304Z,35.87
2018-08-09T09:14:00.711Z,36.15
2018-08-09T09:16:34.134Z,37.74
2018-08-09T09:19:08.059Z,38.24
2018-08-09T09:21:41.455Z,37.90
2018-08-09T09:24:14.860Z,36.23
2018-08-09T09:29:21.662Z,35.34
2018-08-09T09:31:55.103Z,35.42
2018-08-09T09:34:28.601Z,35.37
2018-08-09T09:37:01.989Z,34.77
2018-08-09T09:39:35.420Z,33.21
2018-08-09T09:42:08.855Z,35.05
2018-08-09T09:44:42.266Z,35.58
2018-08-09T09:47:15.662Z,36.39
2018-08-09T09:49:49.057Z,36.36
2018-08-09T09:52:22.831Z,35.88
2018-08-09T09:54:56.254Z,37.14
2018-08-09T09:57:29.628Z,37.17
2018-08-09T10:00:03.094Z,36.80
2018-08-09T10:02:36.486Z,37.45
2018-08-09T10:05:10.072Z,35.96
2018-08-09T10:07:43.426Z,36.57
2018-08-09T10:10:16.866Z,36.73
2018-08-09T10:12:50.281Z,35.87
2018-08-09T10:15:23.700Z,36.45
2018-08-09T10:17:57.099Z,36.55
2018-08-09T10:20:30.493Z,37.95
2018-08-09T10:23:03.894Z,36.49
2018-08-09T10:25:37.293Z,35.19
2018-08-09T10:28:10.685Z,36.31
2018-08-09T10:30:44.101Z,35.68
2018-08-09T10:33:17.511Z,35.06
2018-08-09T10:35:50.907Z,36.66
2018-08-09T10:38:24.279Z,35.30
2018-08-09T10:40:57.694Z,35.37
2018-08-09T10:43:31.062Z,36.18
2018-08-09T10:46:04.462Z,35.59
2018-08-09T10:48:38.687Z,37.22
2018-08-09T10:51:12.078Z,36.33
2018-08-09T10:53:45.444Z,36.58
2018-08-09T10:56:18.962Z,35.38
2018-08-09T10:58:52.428Z,33.88
2018-08-09T11:01:25.862Z,34.51
2018-08-09T11:03:59.291Z,33.98
2018-08-09T11:06:32.687Z,33.05
2018-08-09T11:09:08.618Z,33.23
2018-08-09T11:11:42.007Z,33.53
2018-08-09T11:14:15.358Z,33.57
2018-08-09T11:16:48.846Z,33.47
2018-08-09T11:19:22.226Z,33.00
2018-08-09T11:21:55.664Z,32.57
2018-08-09T11:24:29.034Z,31.85
2018-08-09T11:27:02.437Z,35.40
2018-08-09T11:29:35.824Z,32.13
2018-08-09T11:32:09.218Z,32.77
2018-08-09T11:34:42.586Z,32.25
2018-08-09T11:37:15.988Z,32.44
2018-08-09T11:39:49.418Z,32.01
2018-08-09T11:42:22.807Z,34.72
2018-08-09T11:44:56.174Z,33.97
2018-08-09T11:47:29.619Z,31.50
2018-08-09T11:50:03.002Z,30.68
2018-08-09T11:52:36.395Z,30.85
2018-08-09T11:55:09.813Z,31.60
2018-08-09T11:57:43.195Z,33.04
2018-08-09T12:00:16.619Z,33.48
2018-08-09T12:02:50.058Z,32.30
2018-08-09T12:05:23.462Z,32.63
2018-08-09T12:07:56.866Z,32.51
2018-08-09T12:10:30.449Z,32.62
2018-08-09T12:13:03.905Z,32.50
2018-08-09T12:15:37.348Z,32.82
2018-08-09T12:18:10.784Z,32.53
2018-08-09T12:20:44.224Z,32.63
2018-08-09T12:23:17.643Z,32.28
2018-08-09T12:25:51.054Z,32.82
2018-08-09T12:28:24.542Z,32.99
2018-08-09T12:30:57.954Z,31.34
2018-08-09T12:33:31.458Z,31.50
2018-08-09T12:36:05.274Z,31.12
2018-08-09T12:38:38.699Z,31.73
2018-08-09T12:41:12.074Z,31.63
2018-08-09T12:43:45.583Z,30.97
2018-08-09T12:46:18.980Z,32.30
2018-08-09T12:48:52.467Z,31.51
2018-08-09T12:51:25.930Z,31.97
2018-08-09T12:53:59.982Z,31.81
2018-08-09T12:56:33.526Z,32.09
2018-08-09T12:59:06.978Z,32.52
2018-08-09T13:01:40.420Z,32.24
2018-08-09T13:04:13.887Z,32.61
2018-08-09T13:06:47.334Z,31.83
2018-08-09T13:09:20.752Z,32.59
2018-08-09T13:11:54.177Z,32.98
2018-08-09T13:14:27.604Z,32.59
2018-08-09T13:17:01.128Z,31.89
2018-08-09T13:19:34.520Z,30.73
2018-08-09T13:22:08.231Z,31.97
2018-08-09T13:24:41.623Z,32.19
2018-08-09T13:27:15.451Z,32.19
2018-08-09T13:29:55.543Z,32.76
2018-08-09T13:32:29.136Z,31.67
2018-08-09T13:35:02.575Z,31.28
2018-08-09T13:37:36.019Z,32.15
2018-08-09T13:40:10.232Z,31.37
2018-08-09T13:42:43.661Z,31.71
2018-08-09T13:45:17.257Z,31.74
2018-08-09T13:47:50.730Z,31.87
2018-08-09T13:50:24.207Z,33.28
2018-08-09T13:52:57.639Z,32.52
2018-08-09T13:55:31.037Z,32.16
2018-08-09T13:58:04.600Z,33.42
2018-08-09T14:00:38.043Z,33.11
2018-08-09T14:03:11.467Z,33.87
2018-08-09T14:05:44.886Z,33.44
2018-08-09T14:08:18.330Z,33.17
2018-08-09T14:10:51.726Z,33.03
2018-08-09T14:13:25.156Z,33.26
2018-08-09T14:15:58.625Z,33.88
2018-08-09T14:18:32.044Z,32.95
2018-08-09T14:21:05.431Z,33.25
2018-08-09T14:23:38.830Z,33.01
2018-08-09T14:26:12.243Z,32.19
2018-08-09T14:28:45.691Z,32.46
2018-08-09T14:31:19.077Z,32.00
2018-08-09T14:33:52.746Z,31.99
2018-08-09T14:36:26.172Z,31.85
2018-08-09T14:38:59.725Z,32.11
2018-08-09T14:41:33.152Z,32.41
2018-08-09T14:44:07.030Z,33.07
2018-08-09T14:46:40.448Z,32.16
2018-08-09T14:49:13.877Z,33.60
2018-08-09T14:51:47.259Z,33.37
2018-08-09T14:54:20.666Z,33.24
2018-08-09T14:56:54.058Z,32.68
2018-08-09T14:59:27.527Z,33.27
2018-08-09T15:02:00.963Z,33.16
2018-08-09T15:04:34.388Z,34.44
2018-08-09T15:07:07.773Z,33.87
2018-08-09T15:09:41.216Z,33.79
2018-08-09T15:12:14.668Z,32.94
2018-08-09T15:14:48.092Z,33.41
2018-08-09T15:17:21.543Z,33.87
2018-08-09T15:19:54.951Z,33.65
2018-08-09T15:22:28.358Z,32.59
2018-08-09T15:25:01.796Z,33.27
2018-08-09T15:27:35.299Z,32.13
2018-08-09T15:30:14.565Z,33.25
2018-08-09T15:32:48.307Z,32.59
2018-08-09T15:35:21.761Z,33.85
2018-08-09T15:37:55.252Z,33.65
2018-08-09T15:40:28.627Z,33.66
2018-08-09T15:43:02.067Z,33.94
2018-08-09T15:45:35.473Z,33.22
2018-08-09T15:48:08.938Z,33.50
2018-08-09T15:50:42.378Z,33.59
2018-08-09T15:53:15.775Z,32.70
2018-08-09T15:55:49.271Z,33.46
2018-08-09T15:58:22.699Z,32.80
2018-08-09T16:00:56.160Z,32.60
2018-08-09T16:03:30.018Z,33.13
2018-08-09T16:06:03.423Z,33.10
2018-08-09T16:08:36.858Z,33.48
2018-08-09T16:11:10.303Z,33.33
2018-08-09T16:13:43.727Z,33.10
2018-08-09T16:16:17.154Z,34.96
2018-08-09T16:18:50.589Z,33.72
2018-08-09T16:21:23.982Z,33.04
2018-08-09T16:23:57.388Z,33.31
2018-08-09T16:26:30.783Z,33.16
2018-08-09T16:29:05.451Z,34.14
2018-08-09T16:31:38.885Z,33.93
2018-08-09T16:34:12.324Z,34.75
2018-08-09T16:36:45.714Z,37.88
2018-08-09T16:39:19.123Z,40.76
2018-08-09T16:41:52.513Z,44.81
2018-08-09T16:44:25.931Z,46.83
2018-08-09T16:46:59.316Z,48.17
2018-08-09T16:49:32.787Z,52.98
2018-08-09T16:52:06.184Z,54.99
2018-08-09T16:54:39.686Z,59.14
2018-08-09T16:57:13.096Z,60.91
2018-08-09T16:59:46.720Z,62.21
2018-08-09T17:02:20.147Z,63.32
2018-08-09T17:04:53.784Z,64.72
2018-08-09T17:07:27.244Z,65.74
2018-08-09T17:10:00.726Z,66.26
2018-08-09T17:12:36.575Z,67.35
2018-08-09T17:15:13.345Z,67.88
2018-08-09T17:17:46.816Z,68.45
2018-08-09T17:20:25.655Z,68.54
2018-08-09T17:22:59.857Z,68.77
2018-08-09T17:25:33.420Z,69.83
2018-08-09T17:28:06.853Z,70.00
2018-08-09T17:30:40.405Z,69.79
2018-08-09T17:33:13.844Z,70.50
2018-08-09T17:35:47.611Z,70.43
2018-08-09T17:38:21.069Z,70.90
2018-08-09T17:40:54.526Z,70.90
2018-08-09T17:46:25.340Z,71.65
2018-08-09T17:52:07.098Z,71.70
2018-08-09T17:57:48.858Z,72.23
2018-08-09T18:00:25.575Z,72.80
2018-08-09T18:02:59.917Z,72.86
2018-08-09T18:05:33.286Z,73.05
2018-08-09T18:08:07.367Z,73.05
2018-08-09T18:10:40.773Z,73.55
2018-08-09T18:13:14.116Z,73.69
2018-08-09T18:15:47.459Z,73.37
2018-08-09T18:18:21.042Z,73.59
2018-08-09T18:20:54.447Z,73.46
2018-08-09T18:23:29.958Z,73.87
2018-08-09T18:26:03.655Z,73.97
2018-08-09T18:28:37.080Z,73.93
2018-08-09T18:31:10.482Z,74.04
2018-08-09T18:33:44.029Z,74.17
2018-08-09T18:36:17.422Z,74.13
2018-08-09T18:38:50.913Z,74.14
2018-08-09T18:41:24.338Z,73.81
2018-08-09T18:43:59.944Z,74.01
2018-08-09T18:46:33.381Z,74.24
2018-08-09T18:49:06.946Z,73.95
2018-08-09T18:51:40.333Z,74.21
2018-08-09T18:54:17.703Z,73.96
2018-08-09T18:56:51.105Z,74.11
2018-08-09T18:59:24.574Z,73.86
2018-08-09T19:01:58.068Z,74.31
2018-08-09T19:04:31.428Z,74.16
2018-08-09T19:07:05.089Z,73.69
2018-08-09T19:09:38.590Z,73.74
2018-08-09T19:12:11.973Z,74.00
2018-08-09T19:14:45.464Z,73.21
2018-08-09T19:17:26.897Z,73.94
2018-08-09T19:20:01.454Z,73.64
2018-08-09T19:22:35.820Z,73.36
2018-08-09T19:25:09.935Z,73.72
2018-08-09T19:27:44.479Z,73.81
2018-08-09T19:30:19.525Z,74.15
2018-08-09T19:32:52.975Z,74.03
2018-08-09T19:35:26.365Z,74.33
2018-08-09T19:38:00.015Z,73.96
2018-08-09T19:40:34.367Z,74.03
2018-08-09T19:43:08.296Z,74.15
2018-08-09T19:45:41.662Z,74.28
2018-08-09T19:48:22.735Z,74.22
2018-08-09T19:50:56.126Z,74.32
2018-08-09T19:53:29.964Z,74.45
2018-08-09T19:56:04.289Z,74.50
2018-08-09T19:58:37.717Z,74.56
2018-08-09T20:01:11.129Z,74.18
2018-08-09T20:03:44.513Z,74.46
2018-08-09T20:06:17.954Z,74.85
2018-08-09T20:08:54.258Z,74.40
2018-08-09T20:11:27.714Z,74.89
2018-08-09T20:14:01.124Z,74.74
2018-08-09T20:16:34.685Z,74.50
2018-08-09T20:19:08.439Z,74.76
2018-08-09T20:21:45.072Z,74.33
2018-08-09T20:24:19.225Z,74.80
2018-08-09T20:26:52.699Z,74.50
2018-08-09T20:29:26.208Z,74.38
2018-08-09T20:32:00.053Z,74.61
2018-08-09T20:34:33.613Z,74.55
2018-08-09T20:37:07.091Z,74.34
2018-08-09T20:39:46.609Z,75.04
2018-08-09T20:42:20.184Z,74.72
2018-08-09T20:44:53.649Z,74.47
2018-08-09T20:47:26.997Z,74.73
2018-08-09T20:50:00.411Z,74.49
2018-08-09T20:52:33.826Z,74.54
2018-08-09T20:55:07.596Z,74.77
2018-08-09T20:57:41.951Z,74.61
2018-08-09T21:00:24.578Z,74.74
2018-08-09T21:02:59.127Z,74.54
2018-08-09T21:05:34.154Z,74.25
2018-08-09T21:08:07.921Z,74.43
2018-08-09T21:10:41.349Z,74.34
2018-08-09T21:13:14.723Z,74.59
2018-08-09T21:15:48.786Z,74.61
2018-08-09T21:18:22.265Z,74.39
2018-08-09T21:20:55.630Z,74.32
2018-08-09T21:23:29.106Z,74.06
2018-08-09T21:26:02.553Z,74.53
2018-08-09T21:28:36.020Z,74.72
2018-08-09T21:31:09.618Z,74.46
2018-08-09T21:33:43.066Z,74.47
2018-08-09T21:36:16.449Z,74.78
2018-08-09T21:38:49.879Z,74.44
2018-08-09T21:41:23.231Z,74.33
2018-08-09T21:43:56.657Z,74.43
2018-08-09T21:46:30.032Z,74.55
2018-08-09T21:49:03.585Z,74.74
2018-08-09T21:51:36.950Z,75.14
2018-08-09T21:54:10.450Z,74.62
2018-08-09T21:56:43.882Z,74.66
2018-08-09T21:59:17.411Z,75.07
2018-08-09T22:01:50.800Z,74.70
2018-08-09T22:04:24.182Z,74.78
2018-08-09T22:07:03.013Z,74.98
2018-08-09T22:09:41.576Z,75.28
2018-08-09T22:12:20.251Z,74.70
2018-08-09T22:14:58.812Z,74.65
2018-08-09T22:17:37.462Z,74.73
2018-08-09T22:20:16.076Z,74.72
2018-08-09T22:22:49.494Z,74.71
2018-08-09T22:25:22.862Z,74.82
2018-08-09T22:27:56.265Z,75.36
2018-08-09T22:30:29.660Z,74.91
2018-08-09T22:33:03.213Z,74.99
2018-08-09T22:35:36.777Z,75.16
2018-08-09T22:38:10.351Z,75.16
2018-08-09T22:40:43.995Z,75.27
2018-08-09T22:43:17.569Z,75.79
2018-08-09T22:45:51.175Z,75.98
2018-08-09T22:48:24.774Z,75.43
2018-08-09T22:50:58.253Z,75.29
2018-08-09T22:53:31.868Z,75.49
2018-08-09T22:56:05.254Z,75.48
2018-08-09T22:58:38.641Z,75.43
2018-08-09T23:01:12.048Z,75.65
2018-08-09T23:03:45.449Z,75.82
2018-08-09T23:06:18.872Z,75.66
2018-08-09T23:08:52.262Z,75.72
2018-08-09T23:11:25.706Z,75.73
2018-08-09T23:13:59.113Z,75.63
2018-08-09T23:16:32.491Z,75.66
2018-08-09T23:19:05.946Z,75.56
2018-08-09T23:21:39.347Z,75.70
2018-08-09T23:24:12.749Z,75.87
2018-08-09T23:26:46.122Z,75.61
2018-08-09T23:29:19.529Z,75.28
2018-08-09T23:31:52.986Z,75.26
2018-08-09T23:34:26.426Z,75.54
2018-08-09T23:36:59.844Z,75.09
2018-08-09T23:39:33.189Z,75.44
2018-08-09T23:42:06.807Z,74.95
2018-08-09T23:44:40.206Z,75.33
2018-08-09T23:47:13.589Z,75.25
2018-08-09T23:49:46.967Z,75.13
2018-08-09T23:52:20.426Z,75.32
2018-08-09T23:54:53.809Z,75.50
2018-08-09T23:57:27.797Z,75.34
